Ana Sayfa
METAR-TAF:

METAR-TAF

Havaalanları :

Springfield-Branson Regional Airport

Springfield, Missouri, Amerika Birleşik Devletleri

Enlem: 37-14-23N, Boylam: 093-23-23W, yükseklik: 386 m

Güncel hava durumu gözlemi

Rapor saat 17:52 UTC de 32 dakika önce yapıldı.
Rüzgar güney/güneybatıdan 9 kt
Sıcaklık 28°C
Nem 51%
Basınç 1017 hPa
Görüş mesafesi: 16.1 km
Açık gökyüzü

METAR: KSGF 121752Z 20009KT 10SM CLR 28/17 A3002 RMK AO2 SLP155 T02780172 10278 20183 58008

Saat: 13:24 (18:24 UTC)

Tahmin

Rapor saat 17:20 UTC de 1 saat ve 4 dakika önce yapıldı.
Ayın 12'si saat 18 UTC'den ayın 13'si saat 18 UTC'ye kadar geçerli Tahmin
Rüzgar güneydan 6 kt
Görüş mesafesi: 10 km
Açık gökyüzü
Ayın 13'si saat 1400 UTC'den
Rüzgar güneybatıdan 9 kt
Görüş mesafesi: 10 km
Açık gökyüzü

TAF: KSGF 121720Z 1218/1318 18006KT P6SM SKC FM131400 22009KT P6SM SKC

4.000'den fazla havaalanı için hava durumu gözlemleri ve tahminleri (METAR ve TAF raporları).

Kullanılabilir istasyonlar harita üzerinde sarı ve kırmızı noktalarla gösterilir.

İstasyonun adını görmek için fareyi noktanın üzerinde gezdirin.

Sonrasında hava gözlem ve tahminlerini görmek için tıklayın.

Haritayı değiştirmek için: yaklaştırmak için siyah artı işaretli yeşil düğmeye ve uzaklaştırmak için de eksi işaretli düğmeye hızla tıklayın; bitişik haritalar için yeşil okları kullanın.


METAR-TAF: